sensor_id;sensor_type;location;lat;lon;timestamp;temperature;humidity
68026;SHT31;54819;48.030;14.710;2023-08-07T00:00:18;14.79;68.31
68026;SHT31;54819;48.030;14.710;2023-08-07T00:02:45;14.78;68.25
68026;SHT31;54819;48.030;14.710;2023-08-07T00:05:12;14.76;68.13
68026;SHT31;54819;48.030;14.710;2023-08-07T00:07:38;14.75;67.97
68026;SHT31;54819;48.030;14.710;2023-08-07T00:10:05;14.74;67.85
68026;SHT31;54819;48.030;14.710;2023-08-07T00:12:33;14.72;67.68
68026;SHT31;54819;48.030;14.710;2023-08-07T00:14:59;14.70;67.98
68026;SHT31;54819;48.030;14.710;2023-08-07T00:17:27;14.67;68.26
68026;SHT31;54819;48.030;14.710;2023-08-07T00:19:54;14.65;68.30
68026;SHT31;54819;48.030;14.710;2023-08-07T00:22:21;14.62;68.08
68026;SHT31;54819;48.030;14.710;2023-08-07T00:24:47;14.60;68.24
68026;SHT31;54819;48.030;14.710;2023-08-07T00:27:14;14.57;68.16
68026;SHT31;54819;48.030;14.710;2023-08-07T00:29:41;14.56;67.92
68026;SHT31;54819;48.030;14.710;2023-08-07T00:32:07;14.58;67.79
68026;SHT31;54819;48.030;14.710;2023-08-07T00:34:35;14.57;68.03
68026;SHT31;54819;48.030;14.710;2023-08-07T00:37:01;14.56;67.92
68026;SHT31;54819;48.030;14.710;2023-08-07T00:39:28;14.57;67.69
68026;SHT31;54819;48.030;14.710;2023-08-07T00:41:55;14.56;67.43
68026;SHT31;54819;48.030;14.710;2023-08-07T00:44:21;14.54;67.64
68026;SHT31;54819;48.030;14.710;2023-08-07T00:46:50;14.51;67.57
68026;SHT31;54819;48.030;14.710;2023-08-07T00:49:17;14.50;67.15
68026;SHT31;54819;48.030;14.710;2023-08-07T00:51:45;14.47;67.22
68026;SHT31;54819;48.030;14.710;2023-08-07T00:54:14;14.45;67.08
68026;SHT31;54819;48.030;14.710;2023-08-07T00:56:43;14.46;67.02
68026;SHT31;54819;48.030;14.710;2023-08-07T00:59:10;14.45;67.15
68026;SHT31;54819;48.030;14.710;2023-08-07T01:01:38;14.43;67.26
68026;SHT31;54819;48.030;14.710;2023-08-07T01:04:05;14.40;67.19
68026;SHT31;54819;48.030;14.710;2023-08-07T01:06:32;14.38;67.11
68026;SHT31;54819;48.030;14.710;2023-08-07T01:08:58;14.36;67.36
68026;SHT31;54819;48.030;14.710;2023-08-07T01:11:31;14.35;67.32
68026;SHT31;54819;48.030;14.710;2023-08-07T01:14:49;14.34;67.19
68026;SHT31;54819;48.030;14.710;2023-08-07T01:17:21;14.34;66.92
68026;SHT31;54819;48.030;14.710;2023-08-07T01:19:53;14.35;66.79
68026;SHT31;54819;48.030;14.710;2023-08-07T01:22:19;14.36;66.85
68026;SHT31;54819;48.030;14.710;2023-08-07T01:24:48;14.38;66.95
68026;SHT31;54819;48.030;14.710;2023-08-07T01:30:05;14.41;66.97
68026;SHT31;54819;48.030;14.710;2023-08-07T01:35:36;14.41;66.99
68026;SHT31;54819;48.030;14.710;2023-08-07T01:38:07;14.39;67.29
68026;SHT31;54819;48.030;14.710;2023-08-07T01:40:35;14.37;67.17
68026;SHT31;54819;48.030;14.710;2023-08-07T01:43:04;14.35;67.19
68026;SHT31;54819;48.030;14.710;2023-08-07T01:45:31;14.34;67.01
68026;SHT31;54819;48.030;14.710;2023-08-07T01:47:58;14.31;66.79
68026;SHT31;54819;48.030;14.710;2023-08-07T01:50:25;14.30;66.90
68026;SHT31;54819;48.030;14.710;2023-08-07T01:52:52;14.29;67.17
68026;SHT31;54819;48.030;14.710;2023-08-07T01:55:19;14.27;67.16
68026;SHT31;54819;48.030;14.710;2023-08-07T01:57:51;14.27;66.86
68026;SHT31;54819;48.030;14.710;2023-08-07T02:00:18;14.27;66.90
68026;SHT31;54819;48.030;14.710;2023-08-07T02:02:44;14.27;66.84
68026;SHT31;54819;48.030;14.710;2023-08-07T02:05:13;14.28;66.71
68026;SHT31;54819;48.030;14.710;2023-08-07T02:07:41;14.28;66.96
68026;SHT31;54819;48.030;14.710;2023-08-07T02:10:09;14.28;67.06
68026;SHT31;54819;48.030;14.710;2023-08-07T02:12:35;14.27;66.92
68026;SHT31;54819;48.030;14.710;2023-08-07T02:15:03;14.28;67.06
68026;SHT31;54819;48.030;14.710;2023-08-07T02:17:30;14.27;66.95
68026;SHT31;54819;48.030;14.710;2023-08-07T02:19:57;14.28;66.98
68026;SHT31;54819;48.030;14.710;2023-08-07T02:22:24;14.26;67.15
68026;SHT31;54819;48.030;14.710;2023-08-07T02:24:51;14.25;66.75
68026;SHT31;54819;48.030;14.710;2023-08-07T02:27:18;14.26;66.97
68026;SHT31;54819;48.030;14.710;2023-08-07T02:29:46;14.26;66.86
68026;SHT31;54819;48.030;14.710;2023-08-07T02:32:12;14.28;67.28
68026;SHT31;54819;48.030;14.710;2023-08-07T02:34:39;14.27;67.02
68026;SHT31;54819;48.030;14.710;2023-08-07T02:37:06;14.26;67.21
68026;SHT31;54819;48.030;14.710;2023-08-07T02:39:32;14.24;67.85
68026;SHT31;54819;48.030;14.710;2023-08-07T02:41:59;14.19;68.24
68026;SHT31;54819;48.030;14.710;2023-08-07T02:44:26;14.14;68.24
68026;SHT31;54819;48.030;14.710;2023-08-07T02:46:52;14.09;68.42
68026;SHT31;54819;48.030;14.710;2023-08-07T02:49:19;14.03;68.57
68026;SHT31;54819;48.030;14.710;2023-08-07T02:51:46;13.98;68.70
68026;SHT31;54819;48.030;14.710;2023-08-07T02:54:13;13.93;68.92
68026;SHT31;54819;48.030;14.710;2023-08-07T02:56:40;13.89;68.93
68026;SHT31;54819;48.030;14.710;2023-08-07T02:59:07;13.85;69.11
68026;SHT31;54819;48.030;14.710;2023-08-07T03:01:34;13.81;69.27
68026;SHT31;54819;48.030;14.710;2023-08-07T03:04:01;13.77;69.37
68026;SHT31;54819;48.030;14.710;2023-08-07T03:06:27;13.76;69.61
68026;SHT31;54819;48.030;14.710;2023-08-07T03:08:54;13.74;69.97
68026;SHT31;54819;48.030;14.710;2023-08-07T03:11:20;13.72;70.38
68026;SHT31;54819;48.030;14.710;2023-08-07T03:13:47;13.71;70.48
68026;SHT31;54819;48.030;14.710;2023-08-07T03:16:15;13.70;70.79
68026;SHT31;54819;48.030;14.710;2023-08-07T03:18:42;13.69;70.96
68026;SHT31;54819;48.030;14.710;2023-08-07T03:21:09;13.67;71.04
68026;SHT31;54819;48.030;14.710;2023-08-07T03:23:36;13.63;70.94
68026;SHT31;54819;48.030;14.710;2023-08-07T03:28:44;13.57;70.90
68026;SHT31;54819;48.030;14.710;2023-08-07T03:31:14;13.55;70.72
68026;SHT31;54819;48.030;14.710;2023-08-07T03:33:41;13.52;71.43
68026;SHT31;54819;48.030;14.710;2023-08-07T03:36:08;13.47;71.91
68026;SHT31;54819;48.030;14.710;2023-08-07T03:38:39;13.42;72.43
68026;SHT31;54819;48.030;14.710;2023-08-07T03:41:06;13.35;72.16
68026;SHT31;54819;48.030;14.710;2023-08-07T03:43:33;13.33;72.23
68026;SHT31;54819;48.030;14.710;2023-08-07T03:46:00;13.33;72.19
68026;SHT31;54819;48.030;14.710;2023-08-07T03:48:29;13.32;72.32
68026;SHT31;54819;48.030;14.710;2023-08-07T03:51:02;13.31;72.44
68026;SHT31;54819;48.030;14.710;2023-08-07T03:53:36;13.30;72.87
68026;SHT31;54819;48.030;14.710;2023-08-07T03:56:04;13.25;73.31
68026;SHT31;54819;48.030;14.710;2023-08-07T03:58:32;13.19;73.86
68026;SHT31;54819;48.030;14.710;2023-08-07T04:00:59;13.09;74.61
68026;SHT31;54819;48.030;14.710;2023-08-07T04:03:26;12.99;75.10
68026;SHT31;54819;48.030;14.710;2023-08-07T04:05:53;12.88;75.44
68026;SHT31;54819;48.030;14.710;2023-08-07T04:08:21;12.80;76.05
68026;SHT31;54819;48.030;14.710;2023-08-07T04:10:59;12.71;76.51
68026;SHT31;54819;48.030;14.710;2023-08-07T04:13:30;12.64;77.03
68026;SHT31;54819;48.030;14.710;2023-08-07T04:15:57;12.57;77.44
68026;SHT31;54819;48.030;14.710;2023-08-07T04:18:25;12.51;77.86
68026;SHT31;54819;48.030;14.710;2023-08-07T04:20:52;12.45;77.92
68026;SHT31;54819;48.030;14.710;2023-08-07T04:23:20;12.39;78.29
68026;SHT31;54819;48.030;14.710;2023-08-07T04:25:48;12.38;78.57
68026;SHT31;54819;48.030;14.710;2023-08-07T04:28:15;12.33;78.72
68026;SHT31;54819;48.030;14.710;2023-08-07T04:30:43;12.27;78.64
68026;SHT31;54819;48.030;14.710;2023-08-07T04:33:10;12.21;79.02
68026;SHT31;54819;48.030;14.710;2023-08-07T04:35:37;12.14;79.16
68026;SHT31;54819;48.030;14.710;2023-08-07T04:38:04;12.10;79.61
68026;SHT31;54819;48.030;14.710;2023-08-07T04:40:30;12.04;79.65
68026;SHT31;54819;48.030;14.710;2023-08-07T04:42:57;12.03;79.87
68026;SHT31;54819;48.030;14.710;2023-08-07T04:45:24;12.03;80.18
68026;SHT31;54819;48.030;14.710;2023-08-07T04:47:50;12.03;80.53
68026;SHT31;54819;48.030;14.710;2023-08-07T04:50:18;12.02;80.58
68026;SHT31;54819;48.030;14.710;2023-08-07T04:52:45;12.01;80.45
68026;SHT31;54819;48.030;14.710;2023-08-07T04:55:11;11.99;80.64
68026;SHT31;54819;48.030;14.710;2023-08-07T04:57:38;11.97;80.74
68026;SHT31;54819;48.030;14.710;2023-08-07T05:00:06;11.96;80.67
68026;SHT31;54819;48.030;14.710;2023-08-07T05:02:34;11.94;80.74
68026;SHT31;54819;48.030;14.710;2023-08-07T05:05:01;11.90;80.95
68026;SHT31;54819;48.030;14.710;2023-08-07T05:07:28;11.86;81.22
68026;SHT31;54819;48.030;14.710;2023-08-07T05:09:54;11.79;81.20
68026;SHT31;54819;48.030;14.710;2023-08-07T05:12:21;11.74;81.08
68026;SHT31;54819;48.030;14.710;2023-08-07T05:14:49;11.70;81.19
68026;SHT31;54819;48.030;14.710;2023-08-07T05:17:15;11.67;81.44
68026;SHT31;54819;48.030;14.710;2023-08-07T05:19:42;11.66;81.36
68026;SHT31;54819;48.030;14.710;2023-08-07T05:22:09;11.65;81.29
68026;SHT31;54819;48.030;14.710;2023-08-07T05:24:35;11.65;81.10
68026;SHT31;54819;48.030;14.710;2023-08-07T05:27:08;11.68;80.87
68026;SHT31;54819;48.030;14.710;2023-08-07T05:29:35;11.66;80.49
68026;SHT31;54819;48.030;14.710;2023-08-07T05:32:13;11.64;79.97
68026;SHT31;54819;48.030;14.710;2023-08-07T05:34:41;11.63;80.06
68026;SHT31;54819;48.030;14.710;2023-08-07T05:37:08;11.63;79.69
68026;SHT31;54819;48.030;14.710;2023-08-07T05:39:35;11.64;79.46
68026;SHT31;54819;48.030;14.710;2023-08-07T05:42:02;11.66;79.26
68026;SHT31;54819;48.030;14.710;2023-08-07T05:44:29;11.66;79.16
68026;SHT31;54819;48.030;14.710;2023-08-07T05:46:56;11.66;78.88
68026;SHT31;54819;48.030;14.710;2023-08-07T05:49:23;11.69;78.60
68026;SHT31;54819;48.030;14.710;2023-08-07T05:51:52;11.71;77.88
68026;SHT31;54819;48.030;14.710;2023-08-07T05:54:20;11.73;77.57
68026;SHT31;54819;48.030;14.710;2023-08-07T05:56:47;11.75;77.17
68026;SHT31;54819;48.030;14.710;2023-08-07T05:59:14;11.77;77.12
68026;SHT31;54819;48.030;14.710;2023-08-07T06:01:41;11.78;77.09
68026;SHT31;54819;48.030;14.710;2023-08-07T06:04:08;11.80;77.22
68026;SHT31;54819;48.030;14.710;2023-08-07T06:06:35;11.85;77.43
68026;SHT31;54819;48.030;14.710;2023-08-07T06:09:03;11.88;77.40
68026;SHT31;54819;48.030;14.710;2023-08-07T06:11:30;11.92;77.41
68026;SHT31;54819;48.030;14.710;2023-08-07T06:13:58;11.97;77.20
68026;SHT31;54819;48.030;14.710;2023-08-07T06:16:25;12.01;77.23
68026;SHT31;54819;48.030;14.710;2023-08-07T06:18:52;12.04;76.83
68026;SHT31;54819;48.030;14.710;2023-08-07T06:21:19;12.09;76.41
68026;SHT31;54819;48.030;14.710;2023-08-07T06:23:46;12.12;76.57
68026;SHT31;54819;48.030;14.710;2023-08-07T06:26:13;12.14;76.31
68026;SHT31;54819;48.030;14.710;2023-08-07T06:28:41;12.18;76.55
68026;SHT31;54819;48.030;14.710;2023-08-07T06:31:09;12.22;77.05
68026;SHT31;54819;48.030;14.710;2023-08-07T06:33:37;12.24;76.82
68026;SHT31;54819;48.030;14.710;2023-08-07T06:36:04;12.27;76.71
68026;SHT31;54819;48.030;14.710;2023-08-07T06:38:31;12.28;76.49
68026;SHT31;54819;48.030;14.710;2023-08-07T06:40:58;12.28;76.67
68026;SHT31;54819;48.030;14.710;2023-08-07T06:43:25;12.29;77.10
68026;SHT31;54819;48.030;14.710;2023-08-07T06:45:53;12.27;77.59
68026;SHT31;54819;48.030;14.710;2023-08-07T06:48:21;12.23;77.95
68026;SHT31;54819;48.030;14.710;2023-08-07T06:50:48;12.23;78.11
68026;SHT31;54819;48.030;14.710;2023-08-07T06:53:16;12.23;77.74
68026;SHT31;54819;48.030;14.710;2023-08-07T06:55:43;12.21;77.61
68026;SHT31;54819;48.030;14.710;2023-08-07T06:58:10;12.20;78.05
68026;SHT31;54819;48.030;14.710;2023-08-07T07:00:37;12.19;78.52
68026;SHT31;54819;48.030;14.710;2023-08-07T07:03:04;12.19;78.91
68026;SHT31;54819;48.030;14.710;2023-08-07T07:05:31;12.18;79.00
68026;SHT31;54819;48.030;14.710;2023-08-07T07:07:59;12.18;79.12
68026;SHT31;54819;48.030;14.710;2023-08-07T07:10:26;12.17;79.04
68026;SHT31;54819;48.030;14.710;2023-08-07T07:12:52;12.15;79.31
68026;SHT31;54819;48.030;14.710;2023-08-07T07:15:19;12.16;79.46
68026;SHT31;54819;48.030;14.710;2023-08-07T07:17:46;12.16;79.52
68026;SHT31;54819;48.030;14.710;2023-08-07T07:20:13;12.17;79.65
68026;SHT31;54819;48.030;14.710;2023-08-07T07:22:39;12.16;79.63
68026;SHT31;54819;48.030;14.710;2023-08-07T07:25:06;12.13;79.14
68026;SHT31;54819;48.030;14.710;2023-08-07T07:27:34;12.12;79.11
68026;SHT31;54819;48.030;14.710;2023-08-07T07:30:00;12.13;79.01
68026;SHT31;54819;48.030;14.710;2023-08-07T07:32:27;12.17;79.11
68026;SHT31;54819;48.030;14.710;2023-08-07T07:34:54;12.23;78.91
68026;SHT31;54819;48.030;14.710;2023-08-07T07:37:20;12.31;79.14
68026;SHT31;54819;48.030;14.710;2023-08-07T07:39:47;12.35;78.93
68026;SHT31;54819;48.030;14.710;2023-08-07T07:42:14;12.38;78.18
68026;SHT31;54819;48.030;14.710;2023-08-07T07:44:41;12.43;78.21
68026;SHT31;54819;48.030;14.710;2023-08-07T07:47:07;12.46;78.43
68026;SHT31;54819;48.030;14.710;2023-08-07T07:49:39;12.45;78.31
68026;SHT31;54819;48.030;14.710;2023-08-07T07:52:05;12.46;78.54
68026;SHT31;54819;48.030;14.710;2023-08-07T07:54:34;12.45;78.53
68026;SHT31;54819;48.030;14.710;2023-08-07T07:57:01;12.48;78.86
68026;SHT31;54819;48.030;14.710;2023-08-07T07:59:28;12.48;79.11
68026;SHT31;54819;48.030;14.710;2023-08-07T08:01:55;12.44;79.24
68026;SHT31;54819;48.030;14.710;2023-08-07T08:04:22;12.41;79.32
68026;SHT31;54819;48.030;14.710;2023-08-07T08:06:49;12.41;79.69
68026;SHT31;54819;48.030;14.710;2023-08-07T08:09:16;12.39;79.64
68026;SHT31;54819;48.030;14.710;2023-08-07T08:11:43;12.41;79.94
68026;SHT31;54819;48.030;14.710;2023-08-07T08:14:10;12.42;79.93
68026;SHT31;54819;48.030;14.710;2023-08-07T08:16:36;12.41;80.06
68026;SHT31;54819;48.030;14.710;2023-08-07T08:19:03;12.45;80.19
68026;SHT31;54819;48.030;14.710;2023-08-07T08:21:30;12.48;80.28
68026;SHT31;54819;48.030;14.710;2023-08-07T08:23:58;12.51;80.29
68026;SHT31;54819;48.030;14.710;2023-08-07T08:26:26;12.54;80.18
68026;SHT31;54819;48.030;14.710;2023-08-07T08:28:53;12.57;80.31
68026;SHT31;54819;48.030;14.710;2023-08-07T08:31:19;12.60;80.32
68026;SHT31;54819;48.030;14.710;2023-08-07T08:33:48;12.63;80.42
68026;SHT31;54819;48.030;14.710;2023-08-07T08:36:15;12.65;80.64
68026;SHT31;54819;48.030;14.710;2023-08-07T08:38:42;12.69;80.52
68026;SHT31;54819;48.030;14.710;2023-08-07T08:41:09;12.73;80.37
68026;SHT31;54819;48.030;14.710;2023-08-07T08:43:36;12.74;80.16
68026;SHT31;54819;48.030;14.710;2023-08-07T08:46:06;12.73;80.26
68026;SHT31;54819;48.030;14.710;2023-08-07T08:48:38;12.74;80.22
68026;SHT31;54819;48.030;14.710;2023-08-07T08:51:05;12.73;80.00
68026;SHT31;54819;48.030;14.710;2023-08-07T08:53:34;12.75;79.60
68026;SHT31;54819;48.030;14.710;2023-08-07T08:56:02;12.77;79.76
68026;SHT31;54819;48.030;14.710;2023-08-07T08:58:29;12.80;79.61
68026;SHT31;54819;48.030;14.710;2023-08-07T09:00:56;12.84;79.44
68026;SHT31;54819;48.030;14.710;2023-08-07T09:03:23;12.86;79.16
68026;SHT31;54819;48.030;14.710;2023-08-07T09:05:52;12.90;79.34
68026;SHT31;54819;48.030;14.710;2023-08-07T09:08:21;12.91;79.13
68026;SHT31;54819;48.030;14.710;2023-08-07T09:10:49;12.90;79.24
68026;SHT31;54819;48.030;14.710;2023-08-07T09:13:16;12.90;79.37
68026;SHT31;54819;48.030;14.710;2023-08-07T09:15:48;12.90;79.18
68026;SHT31;54819;48.030;14.710;2023-08-07T09:18:17;12.90;78.98
68026;SHT31;54819;48.030;14.710;2023-08-07T09:20:46;12.94;79.21
68026;SHT31;54819;48.030;14.710;2023-08-07T09:23:15;13.01;79.52
68026;SHT31;54819;48.030;14.710;2023-08-07T09:25:45;13.02;79.29
68026;SHT31;54819;48.030;14.710;2023-08-07T09:28:12;13.03;79.39
68026;SHT31;54819;48.030;14.710;2023-08-07T09:30:39;13.02;79.26
68026;SHT31;54819;48.030;14.710;2023-08-07T09:33:10;12.97;79.39
68026;SHT31;54819;48.030;14.710;2023-08-07T09:35:37;12.91;79.58
68026;SHT31;54819;48.030;14.710;2023-08-07T09:38:05;12.88;79.62
68026;SHT31;54819;48.030;14.710;2023-08-07T09:40:34;12.83;79.93
68026;SHT31;54819;48.030;14.710;2023-08-07T09:43:01;12.84;79.99
68026;SHT31;54819;48.030;14.710;2023-08-07T09:45:29;12.83;79.75
68026;SHT31;54819;48.030;14.710;2023-08-07T09:50:24;12.91;79.93
68026;SHT31;54819;48.030;14.710;2023-08-07T09:52:52;12.99;80.10
68026;SHT31;54819;48.030;14.710;2023-08-07T09:55:19;13.10;80.20
68026;SHT31;54819;48.030;14.710;2023-08-07T09:57:45;13.21;80.10
68026;SHT31;54819;48.030;14.710;2023-08-07T10:00:12;13.32;79.83
68026;SHT31;54819;48.030;14.710;2023-08-07T10:02:42;13.48;79.93
68026;SHT31;54819;48.030;14.710;2023-08-07T10:05:12;13.62;79.85
68026;SHT31;54819;48.030;14.710;2023-08-07T10:07:39;13.67;79.33
68026;SHT31;54819;48.030;14.710;2023-08-07T10:10:07;13.67;79.17
68026;SHT31;54819;48.030;14.710;2023-08-07T10:12:34;13.63;79.18
68026;SHT31;54819;48.030;14.710;2023-08-07T10:15:02;13.59;79.24
68026;SHT31;54819;48.030;14.710;2023-08-07T10:17:30;13.50;79.01
68026;SHT31;54819;48.030;14.710;2023-08-07T10:19:58;13.49;79.71
68026;SHT31;54819;48.030;14.710;2023-08-07T10:22:25;13.52;79.75
68026;SHT31;54819;48.030;14.710;2023-08-07T10:24:53;13.62;79.99
68026;SHT31;54819;48.030;14.710;2023-08-07T10:27:23;13.71;79.90
68026;SHT31;54819;48.030;14.710;2023-08-07T10:29:53;13.81;79.94
68026;SHT31;54819;48.030;14.710;2023-08-07T10:32:20;13.87;79.75
68026;SHT31;54819;48.030;14.710;2023-08-07T10:34:52;13.96;79.52
68026;SHT31;54819;48.030;14.710;2023-08-07T10:40:06;14.09;79.24
68026;SHT31;54819;48.030;14.710;2023-08-07T10:42:56;14.14;79.35
68026;SHT31;54819;48.030;14.710;2023-08-07T10:45:37;14.16;79.02
68026;SHT31;54819;48.030;14.710;2023-08-07T10:48:05;14.20;79.21
68026;SHT31;54819;48.030;14.710;2023-08-07T10:53:28;14.21;78.88
68026;SHT31;54819;48.030;14.710;2023-08-07T10:56:01;14.23;78.95
68026;SHT31;54819;48.030;14.710;2023-08-07T10:58:32;14.35;79.35
68026;SHT31;54819;48.030;14.710;2023-08-07T11:01:16;14.43;78.88
68026;SHT31;54819;48.030;14.710;2023-08-07T11:06:27;14.54;78.76
68026;SHT31;54819;48.030;14.710;2023-08-07T11:08:58;14.56;78.49
68026;SHT31;54819;48.030;14.710;2023-08-07T11:11:26;14.56;78.37
68026;SHT31;54819;48.030;14.710;2023-08-07T11:13:54;14.57;78.61
68026;SHT31;54819;48.030;14.710;2023-08-07T11:16:20;14.60;78.61
68026;SHT31;54819;48.030;14.710;2023-08-07T11:18:48;14.68;78.77
68026;SHT31;54819;48.030;14.710;2023-08-07T11:21:16;14.76;78.75
68026;SHT31;54819;48.030;14.710;2023-08-07T11:23:42;14.78;78.39
68026;SHT31;54819;48.030;14.710;2023-08-07T11:26:10;14.85;78.49
68026;SHT31;54819;48.030;14.710;2023-08-07T11:28:38;14.91;78.24
68026;SHT31;54819;48.030;14.710;2023-08-07T11:31:05;14.91;77.94
68026;SHT31;54819;48.030;14.710;2023-08-07T11:33:33;14.94;78.15
68026;SHT31;54819;48.030;14.710;2023-08-07T11:35:59;14.97;78.34
68026;SHT31;54819;48.030;14.710;2023-08-07T11:41:01;15.00;78.42
68026;SHT31;54819;48.030;14.710;2023-08-07T11:43:29;15.05;78.36
68026;SHT31;54819;48.030;14.710;2023-08-07T11:45:58;15.09;78.48
68026;SHT31;54819;48.030;14.710;2023-08-07T11:48:26;15.16;78.39
68026;SHT31;54819;48.030;14.710;2023-08-07T11:50:54;15.27;78.18
68026;SHT31;54819;48.030;14.710;2023-08-07T11:53:23;15.41;77.56
68026;SHT31;54819;48.030;14.710;2023-08-07T11:55:57;15.50;76.84
68026;SHT31;54819;48.030;14.710;2023-08-07T11:58:26;15.60;76.95
68026;SHT31;54819;48.030;14.710;2023-08-07T12:00:54;15.66;76.70
68026;SHT31;54819;48.030;14.710;2023-08-07T12:05:56;15.71;76.01
68026;SHT31;54819;48.030;14.710;2023-08-07T12:08:34;15.77;75.84
68026;SHT31;54819;48.030;14.710;2023-08-07T12:11:05;15.95;75.75
68026;SHT31;54819;48.030;14.710;2023-08-07T12:13:42;16.02;74.45
68026;SHT31;54819;48.030;14.710;2023-08-07T12:16:12;16.01;74.35
68026;SHT31;54819;48.030;14.710;2023-08-07T12:18:53;15.99;74.68
68026;SHT31;54819;48.030;14.710;2023-08-07T12:21:22;15.92;74.53
68026;SHT31;54819;48.030;14.710;2023-08-07T12:23:51;15.84;74.32
68026;SHT31;54819;48.030;14.710;2023-08-07T12:26:20;15.76;73.86
68026;SHT31;54819;48.030;14.710;2023-08-07T12:28:47;15.74;74.20
68026;SHT31;54819;48.030;14.710;2023-08-07T12:31:14;15.79;74.58
68026;SHT31;54819;48.030;14.710;2023-08-07T12:33:40;15.79;74.18
68026;SHT31;54819;48.030;14.710;2023-08-07T12:36:07;15.80;73.86
68026;SHT31;54819;48.030;14.710;2023-08-07T12:38:37;15.93;74.16
68026;SHT31;54819;48.030;14.710;2023-08-07T12:41:04;16.01;73.80
68026;SHT31;54819;48.030;14.710;2023-08-07T12:43:31;16.03;73.79
68026;SHT31;54819;48.030;14.710;2023-08-07T12:45:58;16.00;73.84
68026;SHT31;54819;48.030;14.710;2023-08-07T12:48:45;16.03;73.58
68026;SHT31;54819;48.030;14.710;2023-08-07T12:51:12;16.04;73.06
68026;SHT31;54819;48.030;14.710;2023-08-07T12:53:39;16.02;71.98
68026;SHT31;54819;48.030;14.710;2023-08-07T12:56:05;16.07;71.60
68026;SHT31;54819;48.030;14.710;2023-08-07T12:58:32;16.08;71.00
68026;SHT31;54819;48.030;14.710;2023-08-07T13:00:59;16.12;71.09
68026;SHT31;54819;48.030;14.710;2023-08-07T13:03:25;16.13;71.04
68026;SHT31;54819;48.030;14.710;2023-08-07T13:05:52;16.05;70.60
68026;SHT31;54819;48.030;14.710;2023-08-07T13:08:18;16.04;71.13
68026;SHT31;54819;48.030;14.710;2023-08-07T13:10:45;16.06;71.52
68026;SHT31;54819;48.030;14.710;2023-08-07T13:13:15;16.05;71.33
68026;SHT31;54819;48.030;14.710;2023-08-07T13:15:42;16.03;71.05
68026;SHT31;54819;48.030;14.710;2023-08-07T13:18:09;16.03;70.89
68026;SHT31;54819;48.030;14.710;2023-08-07T13:20:35;16.01;71.03
68026;SHT31;54819;48.030;14.710;2023-08-07T13:23:02;15.97;70.99
68026;SHT31;54819;48.030;14.710;2023-08-07T13:25:30;15.93;71.18
68026;SHT31;54819;48.030;14.710;2023-08-07T13:27:57;15.92;71.21
68026;SHT31;54819;48.030;14.710;2023-08-07T13:30:24;15.95;71.36
68026;SHT31;54819;48.030;14.710;2023-08-07T13:32:50;15.97;71.23
68026;SHT31;54819;48.030;14.710;2023-08-07T13:35:17;15.99;71.09
68026;SHT31;54819;48.030;14.710;2023-08-07T13:37:44;16.01;71.50
68026;SHT31;54819;48.030;14.710;2023-08-07T13:40:10;15.98;70.53
68026;SHT31;54819;48.030;14.710;2023-08-07T13:42:38;15.97;70.36
68026;SHT31;54819;48.030;14.710;2023-08-07T13:45:05;15.98;69.79
68026;SHT31;54819;48.030;14.710;2023-08-07T13:47:33;16.04;70.43
68026;SHT31;54819;48.030;14.710;2023-08-07T13:50:03;16.11;70.45
68026;SHT31;54819;48.030;14.710;2023-08-07T13:52:30;16.17;69.73
68026;SHT31;54819;48.030;14.710;2023-08-07T13:54:57;16.20;69.26
68026;SHT31;54819;48.030;14.710;2023-08-07T13:57:24;16.28;68.77
68026;SHT31;54819;48.030;14.710;2023-08-07T13:59:50;16.37;69.30
68026;SHT31;54819;48.030;14.710;2023-08-07T14:02:18;16.43;69.71
68026;SHT31;54819;48.030;14.710;2023-08-07T14:04:44;16.53;70.00
68026;SHT31;54819;48.030;14.710;2023-08-07T14:07:12;16.65;70.28
68026;SHT31;54819;48.030;14.710;2023-08-07T14:09:39;16.79;70.20
68026;SHT31;54819;48.030;14.710;2023-08-07T14:12:06;16.96;70.11
68026;SHT31;54819;48.030;14.710;2023-08-07T14:14:33;17.12;70.00
68026;SHT31;54819;48.030;14.710;2023-08-07T14:17:00;17.24;69.53
68026;SHT31;54819;48.030;14.710;2023-08-07T14:19:28;17.29;69.52
68026;SHT31;54819;48.030;14.710;2023-08-07T14:21:55;17.27;69.26
68026;SHT31;54819;48.030;14.710;2023-08-07T14:24:22;17.22;69.33
68026;SHT31;54819;48.030;14.710;2023-08-07T14:26:49;17.10;68.32
68026;SHT31;54819;48.030;14.710;2023-08-07T14:29:15;17.03;68.43
68026;SHT31;54819;48.030;14.710;2023-08-07T14:31:42;17.07;68.91
68026;SHT31;54819;48.030;14.710;2023-08-07T14:34:09;17.20;68.81
68026;SHT31;54819;48.030;14.710;2023-08-07T14:36:36;17.37;68.57
68026;SHT31;54819;48.030;14.710;2023-08-07T14:39:03;17.50;68.14
68026;SHT31;54819;48.030;14.710;2023-08-07T14:41:29;17.60;67.81
68026;SHT31;54819;48.030;14.710;2023-08-07T14:43:56;17.64;67.30
68026;SHT31;54819;48.030;14.710;2023-08-07T14:46:23;17.65;67.54
68026;SHT31;54819;48.030;14.710;2023-08-07T14:48:50;17.65;67.73
68026;SHT31;54819;48.030;14.710;2023-08-07T14:51:17;17.60;67.06
68026;SHT31;54819;48.030;14.710;2023-08-07T14:53:44;17.53;67.46
68026;SHT31;54819;48.030;14.710;2023-08-07T14:56:11;17.49;67.61
68026;SHT31;54819;48.030;14.710;2023-08-07T14:58:37;17.40;68.03
68026;SHT31;54819;48.030;14.710;2023-08-07T15:01:04;17.32;68.27
68026;SHT31;54819;48.030;14.710;2023-08-07T15:03:31;17.30;68.54
68026;SHT31;54819;48.030;14.710;2023-08-07T15:05:57;17.24;68.10
68026;SHT31;54819;48.030;14.710;2023-08-07T15:08:24;17.16;68.23
68026;SHT31;54819;48.030;14.710;2023-08-07T15:10:51;17.10;68.44
68026;SHT31;54819;48.030;14.710;2023-08-07T15:13:19;17.05;67.84
68026;SHT31;54819;48.030;14.710;2023-08-07T15:15:46;17.03;68.16
68026;SHT31;54819;48.030;14.710;2023-08-07T15:18:13;17.02;68.28
68026;SHT31;54819;48.030;14.710;2023-08-07T15:20:40;17.08;68.35
68026;SHT31;54819;48.030;14.710;2023-08-07T15:23:07;17.18;68.19
68026;SHT31;54819;48.030;14.710;2023-08-07T15:25:34;17.29;68.21
68026;SHT31;54819;48.030;14.710;2023-08-07T15:28:00;17.39;68.10
68026;SHT31;54819;48.030;14.710;2023-08-07T15:30:29;17.40;67.84
68026;SHT31;54819;48.030;14.710;2023-08-07T15:32:57;17.35;67.76
68026;SHT31;54819;48.030;14.710;2023-08-07T15:35:24;17.33;67.82
68026;SHT31;54819;48.030;14.710;2023-08-07T15:37:52;17.28;68.00
68026;SHT31;54819;48.030;14.710;2023-08-07T15:40:19;17.28;68.23
68026;SHT31;54819;48.030;14.710;2023-08-07T15:42:46;17.32;67.39